logo
Search for airport 
image banner adimage banner adimage banner ad
image banner ad

OPBT - Bhit

Located in Karachi, Pakistan

ICAO - , IATA -

Data provided by Airmate  

General information

Coordinates: N26°11'45" E67°30'20"
Elevation is 415 feet MSL.
Magnetic variation is 1° East
View others Airports in Sindh

Operational data

Special qualification required
Current time UTC:
Current local time:
Weather at : - ( 0 km )
METAR: ZMUB 191500Z VRB02MPS 9999 SCT033 SCT100 06/M06 Q1006 NOSIG RMK QFE648.3 42 NT
View NOTAMs / SUP AIP / TFR affecting this airport [VIEW]
Communications frequencies: [VIEW]

Runways:

RWY identifierQFULength (ft)Width (ft)SurfaceLDA (ft)
17547998UNK
35547998UNK

Airport contact information

Address: Karachi Pakistan

Satellite view of OPBT